createdAt,value
2022-08-23T00:02:01.869Z,7.10
2022-08-23T00:04:07.884Z,7.70
2022-08-23T00:06:10.885Z,7.10
2022-08-23T00:08:13.070Z,7.00
2022-08-23T00:10:16.644Z,6.30
2022-08-23T00:12:23.176Z,6.40
2022-08-23T00:14:29.319Z,6.20
2022-08-23T00:16:31.063Z,6.30
2022-08-23T00:18:32.759Z,5.40
2022-08-23T00:20:34.939Z,5.90
2022-08-23T00:22:38.105Z,6.00
2022-08-23T00:24:41.049Z,6.00
2022-08-23T00:26:59.991Z,6.50
2022-08-23T00:29:04.619Z,6.20
2022-08-23T00:31:06.679Z,6.20
2022-08-23T00:35:12.497Z,6.30
2022-08-23T00:37:18.291Z,5.60
2022-08-23T00:39:20.810Z,5.90
2022-08-23T00:41:22.657Z,6.10
2022-08-23T00:43:54.530Z,6.30
2022-08-23T00:46:34.354Z,6.00
2022-08-23T00:48:37.627Z,5.80
2022-08-23T00:51:09.270Z,6.00
2022-08-23T00:53:18.950Z,6.20
2022-08-23T00:55:21.234Z,6.40
2022-08-23T00:57:23.252Z,6.00
2022-08-23T01:01:26.797Z,6.00
2022-08-23T01:05:48.077Z,5.60
2022-08-23T01:07:54.614Z,6.10
2022-08-23T01:09:58.786Z,5.90
2022-08-23T01:12:16.194Z,5.10
2022-08-23T01:14:30.939Z,5.20
2022-08-23T01:16:46.571Z,5.10
2022-08-23T01:18:50.394Z,5.20
2022-08-23T01:21:04.136Z,5.10
2022-08-23T01:23:18.047Z,5.30
2022-08-23T01:25:22.038Z,5.10
2022-08-23T01:27:24.753Z,5.20
2022-08-23T01:29:26.485Z,5.00
2022-08-23T01:31:28.892Z,5.30
2022-08-23T01:33:31.499Z,4.60
2022-08-23T01:35:48.653Z,4.70
2022-08-23T01:37:50.619Z,4.60
2022-08-23T01:41:57.516Z,4.90
2022-08-23T01:46:12.464Z,4.50
2022-08-23T01:48:15.063Z,4.40
2022-08-23T01:50:17.021Z,4.90
2022-08-23T01:54:38.011Z,4.20
2022-08-23T01:56:41.433Z,4.30
2022-08-23T01:58:43.139Z,4.30
2022-08-23T02:00:45.584Z,4.00
2022-08-23T02:02:47.376Z,3.60
2022-08-23T02:04:49.015Z,4.10
2022-08-23T02:06:50.692Z,4.20
2022-08-23T02:09:01.362Z,4.00
2022-08-23T02:11:46.397Z,4.10
2022-08-23T02:13:49.306Z,4.40
2022-08-23T02:15:52.484Z,3.40
2022-08-23T02:17:54.916Z,3.20
2022-08-23T02:19:58.507Z,2.70
2022-08-23T02:22:02.906Z,3.30
2022-08-23T02:24:10.676Z,2.10
2022-08-23T02:26:13.821Z,2.30
2022-08-23T02:28:15.473Z,2.90
2022-08-23T02:30:17.360Z,2.50
2022-08-23T02:32:19.799Z,2.50
2022-08-23T02:36:23.220Z,2.90
2022-08-23T02:38:24.987Z,3.00
2022-08-23T02:40:26.641Z,2.70
2022-08-23T02:42:29.397Z,2.40
2022-08-23T02:44:31.353Z,2.40
2022-08-23T02:48:35.439Z,2.80
2022-08-23T02:50:39.322Z,2.70
2022-08-23T02:52:40.954Z,2.60
2022-08-23T02:54:42.653Z,2.70
2022-08-23T02:56:44.345Z,2.90
2022-08-23T02:58:46.279Z,2.80
2022-08-23T03:00:55.894Z,2.70
2022-08-23T03:02:57.692Z,2.60
2022-08-23T03:04:59.335Z,2.70
2022-08-23T03:07:01.018Z,2.70
2022-08-23T03:09:05.299Z,2.70
2022-08-23T03:11:17.564Z,3.10
2022-08-23T03:15:24.054Z,2.40
2022-08-23T03:17:25.745Z,2.60
2022-08-23T03:19:27.674Z,2.40
2022-08-23T03:21:29.506Z,1.80
2022-08-23T03:23:32.872Z,2.10
2022-08-23T03:25:37.454Z,2.00
2022-08-23T03:27:44.767Z,2.30
2022-08-23T03:29:46.754Z,3.00
2022-08-23T03:31:48.438Z,2.60
2022-08-23T03:33:50.213Z,2.60
2022-08-23T03:35:51.913Z,2.80
2022-08-23T03:37:55.403Z,2.70
2022-08-23T03:39:58.476Z,2.30
2022-08-23T03:42:00.174Z,2.40
2022-08-23T03:44:02.302Z,2.50
2022-08-23T03:46:05.403Z,2.40
2022-08-23T03:48:08.503Z,2.90
2022-08-23T03:50:54.740Z,2.60
2022-08-23T03:52:56.642Z,2.50
2022-08-23T03:54:59.021Z,3.00
2022-08-23T03:57:03.710Z,2.70
2022-08-23T03:59:09.270Z,2.90
2022-08-23T04:01:11.034Z,2.70
2022-08-23T04:03:12.693Z,2.30
2022-08-23T04:05:14.468Z,2.50
2022-08-23T04:07:20.878Z,2.80
2022-08-23T04:09:22.620Z,2.70
2022-08-23T04:11:25.441Z,2.80
2022-08-23T04:13:28.713Z,2.40
2022-08-23T04:15:31.129Z,2.60
2022-08-23T04:17:34.168Z,2.90
2022-08-23T04:19:36.244Z,3.50
2022-08-23T04:23:43.405Z,3.10
2022-08-23T04:25:45.771Z,3.20
2022-08-23T04:27:47.500Z,3.10
2022-08-23T04:29:52.135Z,3.00
2022-08-23T04:31:54.300Z,3.30
2022-08-23T04:33:59.009Z,3.10
2022-08-23T04:36:04.057Z,3.10
2022-08-23T04:38:24.777Z,3.20
2022-08-23T04:40:45.597Z,3.10
2022-08-23T04:42:47.273Z,2.80
2022-08-23T04:44:49.824Z,3.40
2022-08-23T04:46:51.880Z,4.30
2022-08-23T04:50:57.127Z,4.00
2022-08-23T04:52:59.090Z,4.80
2022-08-23T04:57:07.958Z,4.60
2022-08-23T04:59:09.760Z,4.70
2022-08-23T05:01:17.577Z,4.70
2022-08-23T05:03:19.952Z,4.60
2022-08-23T05:05:21.913Z,3.70
2022-08-23T05:09:43.650Z,4.10
2022-08-23T05:11:47.306Z,4.30
2022-08-23T05:13:51.881Z,4.50
2022-08-23T05:15:53.562Z,4.60
2022-08-23T05:17:55.307Z,4.50
2022-08-23T05:19:57.023Z,4.20
2022-08-23T05:21:58.739Z,4.30
2022-08-23T05:24:03.937Z,4.00
2022-08-23T05:26:06.538Z,4.50
2022-08-23T05:28:08.340Z,4.40
2022-08-23T05:30:15.177Z,3.90
2022-08-23T05:32:19.879Z,4.00
2022-08-23T05:34:22.519Z,4.20
2022-08-23T05:36:24.478Z,4.80
2022-08-23T05:38:26.745Z,4.50
2022-08-23T05:40:28.523Z,4.40
2022-08-23T05:42:30.358Z,4.50
2022-08-23T05:44:36.263Z,4.40
2022-08-23T05:46:39.050Z,4.30
2022-08-23T05:48:47.070Z,4.30
2022-08-23T05:50:48.749Z,4.40
2022-08-23T05:52:51.291Z,4.00
2022-08-23T05:54:53.252Z,3.90
2022-08-23T05:56:54.887Z,4.10
2022-08-23T05:59:00.931Z,4.40
2022-08-23T06:01:02.758Z,4.20
2022-08-23T06:03:04.686Z,4.10
2022-08-23T06:05:06.887Z,4.10
2022-08-23T06:07:09.939Z,3.70
2022-08-23T06:09:14.444Z,4.10
2022-08-23T06:11:21.223Z,3.70
2022-08-23T06:13:22.996Z,3.60
2022-08-23T06:15:24.716Z,3.80
2022-08-23T06:17:27.633Z,3.90
2022-08-23T06:19:29.350Z,3.70
2022-08-23T06:21:32.077Z,3.50
2022-08-23T06:23:34.240Z,3.60
2022-08-23T06:25:39.901Z,3.50
2022-08-23T06:27:43.777Z,3.80
2022-08-23T06:29:54.914Z,3.60
2022-08-23T06:31:56.592Z,3.40
2022-08-23T06:33:58.434Z,3.00
2022-08-23T07:05:12.987Z,2.20
2022-08-23T07:10:44.013Z,2.40
2022-08-23T07:12:45.716Z,2.20
2022-08-23T07:14:47.428Z,2.60
2022-08-23T07:16:55.107Z,2.10
2022-08-23T07:18:56.760Z,2.20
2022-08-23T07:20:59.846Z,1.90
2022-08-23T07:23:01.674Z,2.30
2022-08-23T07:27:07.356Z,2.50
2022-08-23T07:29:11.382Z,1.90
2022-08-23T07:31:27.197Z,1.80
2022-08-23T07:33:28.896Z,2.20
2022-08-23T07:35:57.660Z,2.00
2022-08-23T07:37:59.645Z,2.20
2022-08-23T07:40:01.380Z,2.20
2022-08-23T07:42:08.328Z,2.00
2022-08-23T07:44:27.375Z,2.00
2022-08-23T07:46:30.428Z,1.80
2022-08-23T07:48:52.818Z,2.20
2022-08-23T07:51:02.113Z,2.30
2022-08-23T07:53:04.407Z,2.10
2022-08-23T07:55:07.082Z,2.50
2022-08-23T07:57:09.156Z,2.00
2022-08-23T07:59:11.435Z,2.20
2022-08-23T08:01:19.087Z,2.10
2022-08-23T08:03:21.605Z,2.10
2022-08-23T08:05:25.249Z,2.10
2022-08-23T08:07:27.798Z,1.90
2022-08-23T08:09:32.748Z,2.00
2022-08-23T08:11:35.662Z,2.20
2022-08-23T08:13:39.347Z,2.20
2022-08-23T08:15:42.330Z,3.50
2022-08-23T08:17:48.131Z,2.20
2022-08-23T08:19:49.807Z,2.00
2022-08-23T08:21:53.330Z,1.90
2022-08-23T08:23:55.978Z,2.00
2022-08-23T08:26:06.816Z,2.20
2022-08-23T08:28:12.832Z,2.00
2022-08-23T08:30:17.433Z,2.10
2022-08-23T08:32:21.803Z,2.00
2022-08-23T08:34:23.781Z,2.50
2022-08-23T08:36:38.168Z,3.20
2022-08-23T08:38:47.952Z,21.00
2022-08-23T08:40:57.436Z,37.70
2022-08-23T08:43:18.246Z,12.20
2022-08-23T08:45:26.388Z,11.90
2022-08-23T08:47:46.371Z,4.10
2022-08-23T08:50:12.946Z,2.40
2022-08-23T08:52:26.950Z,3.20
2022-08-23T08:54:37.524Z,2.10
2022-08-23T08:56:42.866Z,2.20
2022-08-23T08:59:08.937Z,2.90
2022-08-23T09:01:11.134Z,2.30
2022-08-23T09:03:20.392Z,2.30
2022-08-23T09:05:31.486Z,2.30
2022-08-23T09:07:40.392Z,2.80
2022-08-23T09:09:57.407Z,2.40
2022-08-23T09:12:38.219Z,2.20
2022-08-23T09:14:48.708Z,2.20
2022-08-23T09:16:58.164Z,2.30
2022-08-23T09:19:02.705Z,2.10
2022-08-23T09:21:07.537Z,2.10
2022-08-23T09:23:34.418Z,2.20
2022-08-23T09:25:36.485Z,2.00
2022-08-23T09:27:39.687Z,2.50
2022-08-23T09:29:56.260Z,1.50
2022-08-23T09:32:02.644Z,1.20
2022-08-23T09:34:04.922Z,1.40
2022-08-23T09:36:23.213Z,1.30
2022-08-23T09:38:26.928Z,1.90
2022-08-23T09:40:34.349Z,1.60
2022-08-23T09:42:39.760Z,2.30
2022-08-23T09:44:43.514Z,1.20
2022-08-23T09:46:48.152Z,0.60
2022-08-23T09:48:50.232Z,0.60
2022-08-23T09:50:57.917Z,0.90
2022-08-23T09:53:07.704Z,0.50
2022-08-23T09:55:13.293Z,0.50
2022-08-23T09:57:24.674Z,0.70
2022-08-23T09:59:26.927Z,0.60
2022-08-23T10:01:36.727Z,0.60
2022-08-23T10:03:42.701Z,0.50
2022-08-23T10:05:50.721Z,0.50
2022-08-23T10:08:01.042Z,1.10
2022-08-23T10:10:19.262Z,0.70
2022-08-23T10:12:22.351Z,1.20
2022-08-23T10:14:28.654Z,1.30
2022-08-23T10:16:58.051Z,1.20
2022-08-23T10:19:20.891Z,1.10
2022-08-23T10:21:42.581Z,1.20
2022-08-23T10:27:35.290Z,1.00
2022-08-23T10:29:40.981Z,1.30
2022-08-23T10:32:19.183Z,1.00
2022-08-23T10:34:35.975Z,0.70
2022-08-23T10:37:35.938Z,1.10
2022-08-23T10:39:59.200Z,0.80
2022-08-23T10:42:31.908Z,1.10
2022-08-23T10:44:51.192Z,1.00
2022-08-23T10:47:14.232Z,1.10
2022-08-23T10:49:16.446Z,0.70
2022-08-23T10:51:31.571Z,0.90
2022-08-23T10:53:46.956Z,1.20
2022-08-23T10:56:03.282Z,1.70
2022-08-23T10:58:08.702Z,0.60
2022-08-23T11:00:18.447Z,0.60
2022-08-23T11:02:25.889Z,0.70
2022-08-23T11:04:52.506Z,2.00
2022-08-23T11:06:56.493Z,1.50
2022-08-23T11:09:02.653Z,0.70
2022-08-23T11:11:04.364Z,0.60
2022-08-23T11:15:20.726Z,1.10
2022-08-23T11:17:37.714Z,2.40
2022-08-23T11:20:11.084Z,0.90
2022-08-23T11:22:16.814Z,0.90
2022-08-23T11:24:30.287Z,1.20
2022-08-23T11:26:39.895Z,1.90
2022-08-23T11:28:44.717Z,0.80
2022-08-23T11:30:50.222Z,0.50
2022-08-23T11:32:52.050Z,0.80
2022-08-23T11:35:08.771Z,0.50
2022-08-23T11:37:19.783Z,0.40
2022-08-23T11:39:25.607Z,0.60
2022-08-23T11:41:56.553Z,0.50
2022-08-23T11:44:04.889Z,0.50
2022-08-23T11:46:27.972Z,0.40
2022-08-23T11:48:43.682Z,0.30
2022-08-23T11:50:57.544Z,0.70
2022-08-23T11:53:12.065Z,0.60
2022-08-23T11:55:28.920Z,0.70
2022-08-23T11:57:47.041Z,0.60
2022-08-23T12:00:34.239Z,0.90
2022-08-23T12:02:47.545Z,0.60
2022-08-23T12:04:53.452Z,1.10
2022-08-23T12:07:03.685Z,1.00
2022-08-23T12:09:15.846Z,1.00
2022-08-23T12:11:18.841Z,1.00
2022-08-23T12:13:23.239Z,1.10
2022-08-23T12:16:04.832Z,1.30
2022-08-23T12:18:11.436Z,1.30
2022-08-23T12:20:25.436Z,1.10
2022-08-23T12:22:49.867Z,1.20
2022-08-23T12:24:58.189Z,0.70
2022-08-23T12:27:07.399Z,0.90
2022-08-23T12:29:34.041Z,1.50
2022-08-23T12:31:50.871Z,0.70
2022-08-23T12:34:13.632Z,0.70
2022-08-23T12:36:50.195Z,0.40
2022-08-23T12:39:21.252Z,0.50
2022-08-23T12:41:33.994Z,0.40
2022-08-23T12:43:35.717Z,0.50
2022-08-23T12:45:44.202Z,0.50
2022-08-23T12:47:56.920Z,1.00
2022-08-23T12:50:02.696Z,0.90
2022-08-23T12:52:10.411Z,0.80
2022-08-23T12:54:14.565Z,0.70
2022-08-23T12:56:32.243Z,0.60
2022-08-23T12:58:37.061Z,0.80
2022-08-23T13:00:43.346Z,0.60
2022-08-23T13:02:55.335Z,0.80
2022-08-23T13:05:02.420Z,0.60
2022-08-23T13:07:11.579Z,0.70
2022-08-23T13:09:37.234Z,0.60
2022-08-23T13:11:39.337Z,0.70
2022-08-23T13:13:44.099Z,0.90
2022-08-23T13:15:56.915Z,0.80
2022-08-23T13:18:01.261Z,0.90
2022-08-23T13:20:03.708Z,0.90
2022-08-23T13:22:22.159Z,1.00
2022-08-23T13:24:37.707Z,0.90
2022-08-23T13:26:42.947Z,0.80
2022-08-23T13:29:26.378Z,0.90
2022-08-23T13:31:48.803Z,0.90
2022-08-23T13:33:53.593Z,0.80
2022-08-23T13:36:21.282Z,0.70
2022-08-23T13:38:29.349Z,0.90
2022-08-23T13:40:38.492Z,1.00
2022-08-23T13:43:10.056Z,0.80
2022-08-23T13:45:15.046Z,1.00
2022-08-23T13:47:22.677Z,1.20
2022-08-23T13:49:28.497Z,0.90
2022-08-23T13:51:40.327Z,1.00
2022-08-23T13:53:44.951Z,1.00
2022-08-23T13:55:47.780Z,1.10
2022-08-23T13:57:49.819Z,1.10
2022-08-23T13:59:54.246Z,1.20
2022-08-23T14:01:58.141Z,1.10
2022-08-23T14:04:03.424Z,1.40
2022-08-23T14:06:05.278Z,1.10
2022-08-23T14:08:07.002Z,0.80
2022-08-23T14:10:09.003Z,1.10
2022-08-23T14:12:31.067Z,1.00
2022-08-23T14:14:34.067Z,1.10
2022-08-23T14:16:40.585Z,1.10
2022-08-23T14:21:04.891Z,1.00
2022-08-23T14:23:12.076Z,1.10
2022-08-23T14:25:17.644Z,1.20
2022-08-23T14:27:19.357Z,1.00
2022-08-23T14:29:22.616Z,1.50
2022-08-23T14:31:24.458Z,1.40
2022-08-23T14:33:26.178Z,1.30
2022-08-23T14:35:29.467Z,1.50
2022-08-23T14:39:55.884Z,1.20
2022-08-23T14:42:00.265Z,1.20
2022-08-23T14:44:02.105Z,0.90
2022-08-23T14:46:04.971Z,1.10
2022-08-23T14:48:06.768Z,1.20
2022-08-23T14:50:11.399Z,1.20
2022-08-23T14:52:14.011Z,1.20
2022-08-23T14:54:24.432Z,1.10
2022-08-23T14:56:29.171Z,1.00
2022-08-23T14:58:30.893Z,1.10
2022-08-23T15:00:36.082Z,1.00
2022-08-23T15:02:44.388Z,1.00
2022-08-23T15:04:46.185Z,1.00
2022-08-23T15:07:13.824Z,1.00
2022-08-23T15:09:13.691Z,1.00
2022-08-23T15:13:43.706Z,0.70
2022-08-23T15:15:57.794Z,0.90
2022-08-23T15:18:03.107Z,1.30
2022-08-23T15:20:07.494Z,0.90
2022-08-23T15:22:18.498Z,0.80
2022-08-23T15:24:23.820Z,0.90
2022-08-23T15:26:31.139Z,0.70
2022-08-23T15:28:32.834Z,1.00
2022-08-23T15:30:34.923Z,0.70
2022-08-23T15:32:37.521Z,0.70
2022-08-23T15:34:41.065Z,0.60
2022-08-23T15:36:48.778Z,1.00
2022-08-23T15:38:51.090Z,0.60
2022-08-23T15:40:55.838Z,0.70
2022-08-23T15:42:57.519Z,0.60
2022-08-23T15:44:59.234Z,0.70
2022-08-23T15:47:02.135Z,0.70
2022-08-23T15:49:11.124Z,0.70
2022-08-23T15:51:12.901Z,0.50
2022-08-23T15:53:14.868Z,0.70
2022-08-23T15:55:17.219Z,0.70
2022-08-23T15:57:27.888Z,0.90
2022-08-23T15:59:30.774Z,0.70
2022-08-23T16:01:33.911Z,1.00
2022-08-23T16:03:38.189Z,0.60
2022-08-23T16:05:43.963Z,0.90
2022-08-23T16:07:46.402Z,0.90
2022-08-23T16:09:48.044Z,1.00
2022-08-23T16:11:57.129Z,1.10
2022-08-23T16:14:01.340Z,1.30
2022-08-23T16:16:03.348Z,1.40
2022-08-23T16:18:05.206Z,1.50
2022-08-23T16:20:08.112Z,1.50
2022-08-23T16:22:10.145Z,1.50
2022-08-23T16:24:11.818Z,1.70
2022-08-23T16:26:17.119Z,1.80
2022-08-23T16:28:23.261Z,1.50
2022-08-23T16:30:25.470Z,1.90
2022-08-23T16:32:27.261Z,1.70
2022-08-23T16:34:29.118Z,1.90
2022-08-23T16:36:33.103Z,1.80
2022-08-23T16:38:39.837Z,2.10
2022-08-23T16:40:41.501Z,1.80
2022-08-23T16:42:43.280Z,2.10
2022-08-23T16:44:44.967Z,2.00
2022-08-23T16:46:50.266Z,2.10
2022-08-23T16:48:51.941Z,2.20
2022-08-23T16:50:54.295Z,2.20
2022-08-23T16:52:55.967Z,2.20
2022-08-23T16:54:57.697Z,2.20
2022-08-23T16:56:59.344Z,2.10
2022-08-23T16:59:01.932Z,2.20
2022-08-23T17:01:07.701Z,2.00
2022-08-23T17:03:09.934Z,2.00
2022-08-23T17:05:15.413Z,2.30
2022-08-23T17:07:17.059Z,2.50
2022-08-23T17:09:19.449Z,2.30
2022-08-23T17:11:21.231Z,2.40
2022-08-23T17:13:23.031Z,2.00
2022-08-23T17:15:28.626Z,2.10
2022-08-23T17:17:33.414Z,2.10
2022-08-23T17:19:38.710Z,1.80
2022-08-23T17:21:41.944Z,2.10
2022-08-23T17:24:02.384Z,2.10
2022-08-23T17:26:04.097Z,1.80
2022-08-23T17:28:07.996Z,2.20
2022-08-23T17:30:11.453Z,2.40
2022-08-23T17:33:01.487Z,2.00
2022-08-23T17:35:03.534Z,2.20
2022-08-23T17:37:15.717Z,2.10
2022-08-23T17:39:48.407Z,2.00
2022-08-23T17:41:50.795Z,2.10
2022-08-23T17:43:52.446Z,1.80
2022-08-23T17:45:55.822Z,1.70
2022-08-23T17:47:57.707Z,2.00
2022-08-23T17:50:00.465Z,1.80
2022-08-23T17:52:02.233Z,1.90
2022-08-23T17:54:05.096Z,1.90
2022-08-23T17:56:09.917Z,1.70
2022-08-23T17:58:14.634Z,1.50
2022-08-23T18:00:18.667Z,1.40
2022-08-23T18:02:20.757Z,1.60
2022-08-23T18:04:22.595Z,1.30
2022-08-23T18:06:25.354Z,1.50
2022-08-23T18:08:27.175Z,1.40
2022-08-23T18:12:31.908Z,1.60
2022-08-23T18:14:34.058Z,1.50
2022-08-23T18:16:36.674Z,1.60
2022-08-23T18:18:40.167Z,1.60
2022-08-23T18:20:43.665Z,1.60
2022-08-23T18:22:45.406Z,1.80
2022-08-23T18:27:07.442Z,1.70
2022-08-23T18:29:12.038Z,1.70
2022-08-23T18:31:15.442Z,1.20
2022-08-23T18:37:07.830Z,1.80
2022-08-23T18:39:10.722Z,1.60
2022-08-23T18:41:14.637Z,1.50
2022-08-23T18:43:19.576Z,1.60
2022-08-23T18:45:24.741Z,1.80
2022-08-23T18:47:26.851Z,1.90
2022-08-23T18:49:28.928Z,2.10
2022-08-23T18:51:31.018Z,2.20
2022-08-23T18:53:35.520Z,2.00
2022-08-23T18:55:37.543Z,1.90
2022-08-23T18:57:39.203Z,1.80
2022-08-23T18:59:44.433Z,1.80
2022-08-23T19:01:48.303Z,1.60
2022-08-23T19:03:50.846Z,1.70
2022-08-23T19:05:52.800Z,1.80
2022-08-23T19:07:58.013Z,1.70
2022-08-23T19:10:01.274Z,1.70
2022-08-23T19:12:07.014Z,1.60
2022-08-23T19:14:10.826Z,1.60
2022-08-23T19:16:15.491Z,1.70
2022-08-23T19:18:19.832Z,2.00
2022-08-23T19:20:25.576Z,1.80
2022-08-23T19:22:30.211Z,1.70
2022-08-23T19:24:32.070Z,1.60
2022-08-23T19:26:37.083Z,1.40
2022-08-23T19:28:39.246Z,1.40
2022-08-23T19:30:41.448Z,1.40
2022-08-23T19:32:45.095Z,1.30
2022-08-23T19:34:46.781Z,1.30
2022-08-23T19:36:56.805Z,1.20
2022-08-23T19:39:05.221Z,1.20
2022-08-23T19:41:06.904Z,1.20
2022-08-23T19:43:09.778Z,1.40
2022-08-23T19:45:13.689Z,1.40
2022-08-23T19:47:19.587Z,1.80
2022-08-23T19:49:23.033Z,1.40
2022-08-23T19:51:25.037Z,1.20
2022-08-23T19:53:29.205Z,1.40
2022-08-23T19:55:32.013Z,1.30
2022-08-23T19:57:34.911Z,1.40
2022-08-23T19:59:39.473Z,1.30
2022-08-23T20:01:41.218Z,1.90
2022-08-23T20:03:42.940Z,1.50
2022-08-23T20:05:44.830Z,1.80
2022-08-23T20:09:50.481Z,2.10
2022-08-23T20:11:55.324Z,1.60
2022-08-23T20:13:56.991Z,1.50
2022-08-23T20:16:03.965Z,1.70
2022-08-23T20:18:05.722Z,1.80
2022-08-23T20:20:09.396Z,1.50
2022-08-23T20:22:29.395Z,1.70
2022-08-23T20:24:48.969Z,1.60
2022-08-23T20:26:52.983Z,1.70
2022-08-23T20:31:22.578Z,1.70
2022-08-23T20:33:24.230Z,1.70
2022-08-23T20:35:29.962Z,1.60
2022-08-23T20:37:32.832Z,1.40
2022-08-23T20:39:34.493Z,1.40
2022-08-23T20:41:37.825Z,1.60
2022-08-23T20:43:39.590Z,1.50
2022-08-23T20:45:41.301Z,1.50
2022-08-23T20:47:45.003Z,1.50
2022-08-23T20:49:49.982Z,1.40
2022-08-23T20:52:06.919Z,1.50
2022-08-23T20:54:09.724Z,1.50
2022-08-23T20:56:30.758Z,1.50
2022-08-23T20:58:32.528Z,1.80
2022-08-23T21:00:34.587Z,1.60
2022-08-23T21:02:36.473Z,2.00
2022-08-23T21:06:47.449Z,1.50
2022-08-23T21:08:53.720Z,1.50
2022-08-23T21:10:58.294Z,2.00
2022-08-23T21:13:00.136Z,1.90
2022-08-23T21:15:02.524Z,1.70
2022-08-23T21:17:04.264Z,1.80
2022-08-23T21:19:06.319Z,1.90
2022-08-23T21:21:08.337Z,1.80
2022-08-23T21:23:10.245Z,2.00
2022-08-23T21:27:16.553Z,1.90
2022-08-23T21:29:18.349Z,1.60
2022-08-23T21:31:26.670Z,1.80
2022-08-23T21:33:28.377Z,1.90
2022-08-23T21:35:30.143Z,1.60
2022-08-23T21:37:31.869Z,1.80
2022-08-23T21:39:33.572Z,1.70
2022-08-23T21:41:38.633Z,1.60
2022-08-23T21:43:40.330Z,1.70
2022-08-23T21:45:43.280Z,1.80
2022-08-23T21:47:46.034Z,1.50
2022-08-23T21:49:47.928Z,1.40
2022-08-23T21:53:51.770Z,1.80
2022-08-23T21:55:53.750Z,1.30
2022-08-23T21:57:55.732Z,1.30
2022-08-23T22:00:02.619Z,1.20
2022-08-23T22:02:26.437Z,1.40
2022-08-23T22:04:28.203Z,1.30
2022-08-23T22:06:30.059Z,1.50
2022-08-23T22:08:32.126Z,1.30
2022-08-23T22:10:37.082Z,1.40
2022-08-23T22:12:39.431Z,1.80
2022-08-23T22:14:41.108Z,1.50
2022-08-23T22:16:46.146Z,1.40
2022-08-23T22:18:48.358Z,1.40
2022-08-23T22:20:50.060Z,1.10
2022-08-23T22:22:51.713Z,0.90
2022-08-23T22:24:54.287Z,1.20
2022-08-23T22:26:56.036Z,1.20
2022-08-23T22:28:57.689Z,1.30
2022-08-23T22:31:03.777Z,0.90
2022-08-23T22:33:05.493Z,1.40
2022-08-23T22:35:08.815Z,1.40
2022-08-23T22:37:10.952Z,1.60
2022-08-23T22:39:12.670Z,1.50
2022-08-23T22:41:20.683Z,1.60
2022-08-23T22:43:22.351Z,1.40
2022-08-23T22:45:24.217Z,1.70
2022-08-23T22:47:26.185Z,1.40
2022-08-23T22:51:34.605Z,1.40
2022-08-23T22:53:38.710Z,1.20
2022-08-23T22:55:41.938Z,1.50
2022-08-23T22:58:21.212Z,1.20
2022-08-23T23:00:23.067Z,1.10
2022-08-23T23:02:24.763Z,1.10
2022-08-23T23:04:31.842Z,1.20
2022-08-23T23:06:34.002Z,1.20
2022-08-23T23:09:11.587Z,1.40
2022-08-23T23:11:14.487Z,1.10
2022-08-23T23:13:16.336Z,1.30
2022-08-23T23:15:18.057Z,1.30
2022-08-23T23:17:19.733Z,1.30
2022-08-23T23:19:40.352Z,1.40
2022-08-23T23:21:46.766Z,1.40
2022-08-23T23:23:48.433Z,1.20
2022-08-23T23:25:50.770Z,1.30
2022-08-23T23:27:55.353Z,1.30
2022-08-23T23:30:02.580Z,1.30
2022-08-23T23:32:05.003Z,1.50
2022-08-23T23:34:09.883Z,1.20
2022-08-23T23:36:12.116Z,1.20
2022-08-23T23:38:19.254Z,1.40
2022-08-23T23:40:21.998Z,1.20
2022-08-23T23:42:23.819Z,1.10
2022-08-23T23:44:29.959Z,0.90
2022-08-23T23:46:35.978Z,1.30
2022-08-23T23:48:42.790Z,1.20
2022-08-23T23:50:46.403Z,1.30
2022-08-23T23:52:48.752Z,1.10
2022-08-23T23:54:50.518Z,1.30
2022-08-23T23:56:52.150Z,1.40
2022-08-23T23:58:56.528Z,1.20
